Time;durP1;ratioP1;P1;durP2;ratioP2;P2;SDS_P1;SDS_P2;PMS_P1;PMS_P2;Temp;Humidity;BMP_temperature;BMP_pressure;BME280_temperature;BME280_humidity;BME280_pressure;Samples;Min_cycle;Max_cycle;Signal;HPM_P1;HPM_P2
2022/01/12 00:02:00;;;;;;;29.23;15.00;;;;;;;1.95;100.00;103529.84;5018017;28;20460;-45
2022/01/12 00:04:26;;;;;;;35.15;15.75;;;;;;;1.95;100.00;103535.13;5021084;28;20053;-44
2022/01/12 00:06:51;;;;;;;37.42;16.33;;;;;;;1.97;100.00;103538.59;5021602;28;20029;-47
2022/01/12 00:09:16;;;;;;;33.03;14.77;;;;;;;1.95;100.00;103541.28;5022503;28;20026;-45
2022/01/12 00:11:42;;;;;;;36.25;14.68;;;;;;;1.99;100.00;103549.97;5021454;28;20076;-45
2022/01/12 00:14:08;;;;;;;39.17;15.38;;;;;;;1.99;100.00;103555.25;5022363;28;20032;-44
2022/01/12 00:16:34;;;;;;;36.47;16.60;;;;;;;1.98;100.00;103557.00;5021600;28;20041;-47
2022/01/12 00:19:00;;;;;;;33.85;15.93;;;;;;;1.99;100.00;103560.53;5022014;28;20079;-46
2022/01/12 00:21:26;;;;;;;37.35;15.70;;;;;;;2.00;100.00;103559.59;5020985;28;20464;-44
2022/01/12 00:23:51;;;;;;;33.45;15.05;;;;;;;2.02;100.00;103563.94;5002777;28;20538;-44
2022/01/12 00:34:25;;;;;;;39.85;16.98;;;;;;;1.95;100.00;103586.09;5000998;28;20452;-46
2022/01/12 00:36:51;;;;;;;34.50;16.83;;;;;;;1.94;100.00;103581.72;4983967;28;20022;-44
2022/01/12 00:39:16;;;;;;;37.58;16.80;;;;;;;1.87;100.00;103574.88;5002342;28;20041;-43
2022/01/12 00:41:42;;;;;;;39.22;18.05;;;;;;;1.85;100.00;103580.16;5001413;28;20045;-46
2022/01/12 00:44:10;;;;;;;38.97;17.05;;;;;;;1.83;100.00;103587.25;5001711;28;20025;-46
2022/01/12 00:46:38;;;;;;;40.05;17.65;;;;;;;1.77;100.00;103591.78;5000898;28;20022;-49
2022/01/12 00:49:04;;;;;;;41.35;18.75;;;;;;;1.74;100.00;103599.75;5001650;28;20052;-46
2022/01/12 00:51:33;;;;;;;47.90;20.70;;;;;;;1.67;100.00;103601.66;5000553;28;20234;-44
2022/01/12 00:54:00;;;;;;;44.95;18.75;;;;;;;1.64;100.00;103602.59;5001481;28;20034;-46
2022/01/12 00:56:26;;;;;;;42.22;19.15;;;;;;;1.60;100.00;103597.44;5000798;28;20026;-46
2022/01/12 00:58:51;;;;;;;42.30;18.75;;;;;;;1.59;100.00;103595.72;5000655;28;20036;-47
2022/01/12 01:01:19;;;;;;;43.40;19.60;;;;;;;1.58;100.00;103602.75;4984086;28;20114;-45
2022/01/12 01:03:44;;;;;;;42.20;19.75;;;;;;;1.55;100.00;103588.78;5000735;28;20026;-45
2022/01/12 01:06:11;;;;;;;48.30;19.40;;;;;;;1.52;100.00;103597.59;5000538;28;20038;-44
2022/01/12 01:08:37;;;;;;;47.25;20.45;;;;;;;1.49;100.00;103601.19;5000300;28;20034;-46
2022/01/12 01:11:03;;;;;;;53.40;21.83;;;;;;;1.45;100.00;103588.97;5000893;28;20409;-45
2022/01/12 01:13:35;;;;;;;47.30;20.83;;;;;;;1.47;100.00;103594.22;5000894;28;20145;-45
2022/01/12 01:26:50;;;;;;;46.00;21.25;;;;;;;1.30;100.00;103589.31;4999751;28;20064;-46
2022/01/12 01:29:15;;;;;;;56.42;23.88;;;;;;;1.29;100.00;103593.72;5001326;28;20483;-45
2022/01/12 01:31:43;;;;;;;60.38;23.92;;;;;;;1.29;100.00;103593.72;5000107;28;20048;-48
2022/01/12 01:34:10;;;;;;;55.30;23.67;;;;;;;1.30;100.00;103597.22;5000446;28;20057;-43
2022/01/12 01:36:45;;;;;;;52.83;23.20;;;;;;;1.33;100.00;103606.81;5000176;28;20033;-45
2022/01/12 01:39:14;;;;;;;56.28;25.38;;;;;;;1.26;100.00;103604.31;5000621;28;20034;-44
2022/01/12 01:41:42;;;;;;;54.40;23.58;;;;;;;1.30;100.00;103613.00;4999300;28;20307;-46
2022/01/12 01:54:54;;;;;;;62.25;25.83;;;;;;;1.28;100.00;103601.66;5000448;28;20137;-45
2022/01/12 01:57:19;;;;;;;59.75;25.58;;;;;;;1.27;100.00;103590.25;4999785;28;21086;-48
2022/01/12 01:59:45;;;;;;;67.03;26.92;;;;;;;1.26;100.00;103577.97;5000079;28;20026;-45
2022/01/12 02:02:11;;;;;;;63.75;25.88;;;;;;;1.26;100.00;103582.38;5000593;28;20049;-47
2022/01/12 02:04:37;;;;;;;63.80;25.77;;;;;;;1.25;100.00;103586.78;4998431;28;20041;-45
2022/01/12 02:07:02;;;;;;;65.55;25.75;;;;;;;1.23;100.00;103570.16;5000399;28;20034;-44
2022/01/12 02:09:28;;;;;;;64.43;27.42;;;;;;;1.26;100.00;103566.59;4999703;28;20354;-44
2022/01/12 02:11:53;;;;;;;64.43;26.75;;;;;;;1.25;100.00;103567.47;4999048;28;20144;-48
2022/01/12 02:14:20;;;;;;;65.80;27.50;;;;;;;1.25;100.00;103580.66;4999805;28;20030;-46
2022/01/12 02:16:56;;;;;;;69.00;27.30;;;;;;;1.24;100.00;103582.41;4998783;28;20384;-47
2022/01/12 02:19:48;;;;;;;74.57;30.67;;;;;;;1.21;100.00;103585.13;4998630;28;20021;-46
2022/01/12 02:36:20;;;;;;;68.38;27.20;;;;;;;1.24;100.00;103615.75;4998338;28;20169;-49
2022/01/12 02:41:29;;;;;;;66.65;28.20;;;;;;;1.25;100.00;103612.22;4998747;28;20565;-46
2022/01/12 02:54:44;;;;;;;70.80;26.77;;;;;;;1.27;100.00;103632.38;4999072;28;20038;-44
2022/01/12 02:57:09;;;;;;;70.82;27.80;;;;;;;1.28;100.00;103631.47;4999195;28;20037;-46
2022/01/12 02:59:36;;;;;;;75.15;28.38;;;;;;;1.29;100.00;103646.38;4998728;28;20025;-45
2022/01/12 03:04:28;;;;;;;63.13;27.45;;;;;;;1.30;100.00;103656.00;4997224;28;20037;-44
2022/01/12 03:07:03;;;;;;;67.13;28.75;;;;;;;1.32;100.00;103655.97;4998526;28;20034;-48
2022/01/12 03:09:28;;;;;;;70.45;28.92;;;;;;;1.32;100.00;103661.22;5002409;28;20391;-48
2022/01/12 03:11:53;;;;;;;71.13;29.38;;;;;;;1.33;100.00;103670.88;5002504;28;20033;-45
2022/01/12 03:14:19;;;;;;;63.63;27.13;;;;;;;1.34;100.00;103669.97;5003105;28;20032;-44
2022/01/12 03:16:44;;;;;;;70.43;29.13;;;;;;;1.33;100.00;103670.88;5002772;28;20473;-44
2022/01/12 03:19:09;;;;;;;72.82;29.35;;;;;;;1.30;100.00;103677.06;5001106;28;20025;-47
2022/01/12 03:21:35;;;;;;;79.32;30.00;;;;;;;1.28;100.00;103672.72;5002060;28;20019;-45
2022/01/12 03:24:01;;;;;;;68.22;29.05;;;;;;;1.30;100.00;103678.81;5003096;28;20083;-44
2022/01/12 03:26:29;;;;;;;69.65;27.88;;;;;;;1.30;100.00;103670.94;5002016;28;20045;-45
2022/01/12 03:28:55;;;;;;;73.82;27.85;;;;;;;1.30;100.00;103669.16;4984819;28;20033;-47
2022/01/12 03:31:24;;;;;;;67.45;28.40;;;;;;;1.31;100.00;103670.03;5002940;28;20025;-45
2022/01/12 03:33:56;;;;;;;69.40;27.92;;;;;;;1.27;100.00;103670.97;5000296;28;20022;-44
2022/01/12 03:39:12;;;;;;;62.17;26.52;;;;;;;1.30;100.00;103660.41;5003033;28;19916;-43
2022/01/12 03:41:38;;;;;;;69.53;30.40;;;;;;;1.32;100.00;103668.28;4983413;28;20417;-48
2022/01/12 03:44:07;;;;;;;71.50;28.60;;;;;;;1.30;100.00;103668.28;5001700;28;20037;-45
2022/01/12 03:46:37;;;;;;;72.60;28.83;;;;;;;1.30;100.00;103670.94;5001980;28;20088;-44
2022/01/12 03:49:03;;;;;;;71.05;28.73;;;;;;;1.32;100.00;103677.03;5001208;28;20034;-44
2022/01/12 03:51:28;;;;;;;74.03;29.23;;;;;;;1.31;100.00;103677.94;5002146;28;20366;-46
2022/01/12 03:53:54;;;;;;;67.00;29.42;;;;;;;1.32;100.00;103684.91;5001926;28;20144;-44
2022/01/12 03:56:19;;;;;;;78.85;31.33;;;;;;;1.31;100.00;103699.00;5002090;28;20026;-44
2022/01/12 03:58:44;;;;;;;82.30;33.20;;;;;;;1.32;100.00;103699.88;4983274;28;20538;-46
2022/01/12 04:01:10;;;;;;;82.90;30.02;;;;;;;1.31;100.00;103701.63;5001968;28;20084;-46
2022/01/12 04:03:40;;;;;;;76.25;30.88;;;;;;;1.34;100.00;103698.06;5001249;28;20026;-43
2022/01/12 04:08:50;;;;;;;78.10;30.98;;;;;;;1.38;100.00;103692.72;5001824;28;20044;-45
2022/01/12 04:11:15;;;;;;;82.00;30.77;;;;;;;1.36;100.00;103683.97;5001679;28;20109;-43
2022/01/12 04:13:42;;;;;;;76.50;30.92;;;;;;;1.39;100.00;103690.94;4983300;28;20050;-44
2022/01/12 04:16:08;;;;;;;78.68;31.73;;;;;;;1.37;100.00;103690.97;5001887;28;20061;-43
2022/01/12 04:18:34;;;;;;;76.95;30.95;;;;;;;1.39;100.00;103691.81;5000886;28;20057;-45
2022/01/12 04:21:03;;;;;;;69.00;29.42;;;;;;;1.40;100.00;103684.78;5000042;28;20026;-44
2022/01/12 04:23:29;;;;;;;72.97;30.83;;;;;;;1.40;100.00;103677.75;5001379;28;20671;-44
2022/01/12 04:25:59;;;;;;;72.22;31.02;;;;;;;1.37;100.00;103674.31;5000463;28;20376;-45
2022/01/12 04:28:27;;;;;;;74.10;31.77;;;;;;;1.36;100.00;103675.19;4983362;28;20037;-43
2022/01/12 04:30:54;;;;;;;74.90;31.92;;;;;;;1.34;100.00;103685.78;5000980;28;20076;-45
2022/01/12 04:33:21;;;;;;;71.78;31.05;;;;;;;1.37;100.00;103692.75;5001292;28;20045;-44
2022/01/12 04:35:55;;;;;;;72.63;30.90;;;;;;;1.35;100.00;103676.97;5000007;28;20452;-45
2022/01/12 04:38:23;;;;;;;72.22;31.38;;;;;;;1.32;100.00;103674.38;5001636;28;20022;-44
2022/01/12 04:40:49;;;;;;;79.25;31.48;;;;;;;1.34;100.00;103682.25;4999955;28;20444;-44
2022/01/12 04:43:16;;;;;;;73.20;31.52;;;;;;;1.35;100.00;103681.38;5001758;28;20033;-45
2022/01/12 04:50:42;;;;;;;80.05;32.88;;;;;;;1.34;100.00;103680.53;4999776;28;20033;-44
2022/01/12 04:53:08;;;;;;;78.50;32.90;;;;;;;1.35;100.00;103669.06;5001006;28;20057;-42
2022/01/12 04:55:33;;;;;;;82.63;32.63;;;;;;;1.36;100.00;103672.56;5000010;28;20069;-44
2022/01/12 04:57:59;;;;;;;77.32;33.42;;;;;;;1.36;100.00;103668.19;5000618;28;20662;-45
2022/01/12 05:00:26;;;;;;;74.35;32.30;;;;;;;1.36;100.00;103670.81;5000989;28;20033;-43
2022/01/12 05:08:48;;;;;;;76.78;31.10;;;;;;;1.35;100.00;103669.06;5002480;28;20048;-46
2022/01/12 05:13:55;;;;;;;85.82;32.47;;;;;;;1.37;100.00;103683.06;5020295;28;20110;-42
2022/01/12 05:16:21;;;;;;;77.38;30.77;;;;;;;1.40;100.00;103683.00;5020561;28;20021;-47
2022/01/12 05:18:48;;;;;;;72.88;30.98;;;;;;;1.42;100.00;103685.63;5014903;28;20504;-45
2022/01/12 05:21:15;;;;;;;71.75;30.63;;;;;;;1.41;100.00;103679.50;5001228;28;20520;-46
2022/01/12 05:23:40;;;;;;;76.63;31.48;;;;;;;1.40;100.00;103679.50;5000012;28;20078;-45
2022/01/12 05:26:06;;;;;;;71.97;30.23;;;;;;;1.44;100.00;103681.19;4999545;28;20081;-44
2022/01/12 05:28:33;;;;;;;71.43;29.38;;;;;;;1.44;100.00;103686.44;5000437;28;20488;-47
2022/01/12 05:30:59;;;;;;;70.88;30.02;;;;;;;1.44;100.00;103686.44;4999739;28;20026;-45
2022/01/12 05:33:26;;;;;;;72.15;30.30;;;;;;;1.45;100.00;103702.22;4999449;28;20034;-45
2022/01/12 05:35:53;;;;;;;72.72;30.35;;;;;;;1.47;100.00;103707.44;4999418;28;20030;-48
2022/01/12 05:38:18;;;;;;;72.68;30.30;;;;;;;1.46;100.00;103708.34;5000219;28;20022;-47
2022/01/12 05:40:47;;;;;;;79.57;30.25;;;;;;;1.47;100.00;103708.31;4999725;28;20033;-44
2022/01/12 05:43:14;;;;;;;73.35;29.88;;;;;;;1.49;100.00;103710.91;4999852;28;20156;-43
2022/01/12 05:45:44;;;;;;;75.57;31.05;;;;;;;1.49;100.00;103701.28;4999371;28;20030;-46
2022/01/12 05:50:35;;;;;;;76.93;31.88;;;;;;;1.50;100.00;103704.75;4998773;28;20089;-45
2022/01/12 05:53:01;;;;;;;79.65;33.30;;;;;;;1.48;100.00;103701.31;4999991;28;20042;-44
2022/01/12 05:55:27;;;;;;;83.43;31.17;;;;;;;1.46;100.00;103701.34;4999751;28;20081;-44
2022/01/12 05:57:52;;;;;;;76.22;31.00;;;;;;;1.45;100.00;103696.94;4980339;28;20041;-44
2022/01/12 06:00:20;;;;;;;79.75;32.35;;;;;;;1.42;100.00;103702.28;5000002;28;20054;-45
2022/01/12 06:02:45;;;;;;;83.93;31.35;;;;;;;1.43;100.00;103697.91;4999088;28;20105;-43
2022/01/12 06:05:14;;;;;;;81.63;32.80;;;;;;;1.42;100.00;103699.63;4999213;28;20105;-46
2022/01/12 06:07:39;;;;;;;85.32;33.17;;;;;;;1.41;100.00;103704.94;4999052;28;20041;-45
2022/01/12 06:10:05;;;;;;;81.93;31.65;;;;;;;1.41;100.00;103699.66;4999902;28;20133;-43
2022/01/12 06:12:30;;;;;;;84.43;32.65;;;;;;;1.43;100.00;103714.56;4999210;28;20029;-48
2022/01/12 06:14:55;;;;;;;85.03;32.25;;;;;;;1.44;100.00;103716.31;4998368;28;20022;-44
2022/01/12 06:17:22;;;;;;;84.60;32.67;;;;;;;1.43;100.00;103719.81;5014791;28;20030;-47
2022/01/12 06:19:47;;;;;;;80.85;31.50;;;;;;;1.46;100.00;103726.78;5017688;28;20025;-46
2022/01/12 06:22:13;;;;;;;86.85;33.50;;;;;;;1.45;100.00;103733.81;5001797;28;20163;-45
2022/01/12 06:24:38;;;;;;;89.50;34.65;;;;;;;1.46;100.00;103738.19;5018172;28;20036;-45
2022/01/12 06:27:04;;;;;;;88.57;32.45;;;;;;;1.48;100.00;103740.81;5018675;28;20146;-44
2022/01/12 06:29:43;;;;;;;91.28;33.15;;;;;;;1.48;100.00;103757.47;5015991;28;20143;-44
2022/01/12 06:32:09;;;;;;;83.45;32.38;;;;;;;1.46;100.00;103756.63;5007576;28;20033;-46
2022/01/12 06:34:35;;;;;;;84.63;32.80;;;;;;;1.47;100.00;103750.44;5007196;28;20079;-45
2022/01/12 06:37:00;;;;;;;88.07;31.85;;;;;;;1.51;100.00;103755.66;5002487;28;20029;-46
2022/01/12 06:39:26;;;;;;;85.07;32.88;;;;;;;1.53;100.00;103767.03;5006184;28;20026;-46
2022/01/12 06:41:54;;;;;;;89.28;31.65;;;;;;;1.52;100.00;103768.81;5008964;28;20506;-46
2022/01/12 06:44:20;;;;;;;83.43;32.15;;;;;;;1.54;100.00;103774.91;5014788;28;20504;-46
2022/01/12 06:46:50;;;;;;;89.18;33.50;;;;;;;1.55;100.00;103775.78;5009457;28;20099;-45
2022/01/12 06:49:16;;;;;;;87.07;31.85;;;;;;;1.56;100.00;103774.88;5017211;28;20043;-44
2022/01/12 06:51:43;;;;;;;83.40;33.50;;;;;;;1.55;100.00;103763.47;5017138;28;20128;-49
2022/01/12 06:54:13;;;;;;;96.35;35.03;;;;;;;1.53;100.00;103773.19;5014839;28;20041;-45
2022/01/12 06:56:38;;;;;;;88.25;33.75;;;;;;;1.52;100.00;103779.34;5007276;28;20249;-50
2022/01/12 06:59:05;;;;;;;83.53;32.95;;;;;;;1.53;100.00;103780.19;5010233;28;20028;-48
2022/01/12 07:01:31;;;;;;;78.47;32.70;;;;;;;1.56;100.00;103781.03;5004160;28;20476;-44
2022/01/12 07:03:57;;;;;;;90.25;33.28;;;;;;;1.57;100.00;103777.47;4997556;28;20325;-45
2022/01/12 07:06:23;;;;;;;82.57;31.88;;;;;;;1.60;100.00;103795.88;4981602;28;20456;-43
2022/01/12 07:08:48;;;;;;;84.65;32.55;;;;;;;1.59;100.00;103795.91;5001119;28;20034;-43
2022/01/12 07:11:13;;;;;;;82.72;32.05;;;;;;;1.61;100.00;103800.25;5005459;28;20026;-43
2022/01/12 07:13:39;;;;;;;79.47;30.95;;;;;;;1.63;100.00;103789.66;5007213;28;20044;-44
2022/01/12 07:16:04;;;;;;;85.15;32.00;;;;;;;1.60;100.00;103787.09;5019155;28;20021;-45
2022/01/12 07:18:29;;;;;;;78.28;31.60;;;;;;;1.61;100.00;103792.34;5016870;28;20029;-43
2022/01/12 07:20:59;;;;;;;86.00;33.38;;;;;;;1.61;100.00;103802.88;5015442;28;20400;-44
2022/01/12 07:23:26;;;;;;;85.90;31.95;;;;;;;1.65;100.00;103804.56;4997284;28;20025;-45
2022/01/12 07:25:51;;;;;;;91.30;34.10;;;;;;;1.66;100.00;103800.13;5017828;28;20450;-49
2022/01/12 07:28:17;;;;;;;90.90;33.78;;;;;;;1.63;100.00;103811.63;5018642;28;20112;-45
2022/01/12 14:37:30;;;;;;;71.78;21.95;;;;;;;3.49;100.00;104020.47;4941123;29;20054;-45
2022/01/12 14:39:55;;;;;;;58.00;20.15;;;;;;;3.53;100.00;104008.03;4962914;28;20039;-47
2022/01/12 14:42:21;;;;;;;74.30;22.90;;;;;;;3.62;100.00;104018.41;4962505;28;20034;-45
2022/01/12 14:44:46;;;;;;;66.53;21.63;;;;;;;3.65;100.00;104013.03;4963084;28;20061;-44
2022/01/12 14:47:12;;;;;;;77.75;24.33;;;;;;;3.64;100.00;104006.00;4962732;28;20050;-44
2022/01/12 14:49:37;;;;;;;74.00;22.15;;;;;;;3.65;100.00;104009.50;4963140;28;20129;-46
2022/01/12 14:52:03;;;;;;;60.70;22.50;;;;;;;3.58;100.00;104007.94;4963166;28;20027;-43
2022/01/12 14:54:28;;;;;;;63.55;22.35;;;;;;;3.54;100.00;104001.84;4962718;28;20034;-45
2022/01/12 14:56:54;;;;;;;70.88;22.35;;;;;;;3.53;100.00;103997.47;4962726;28;20034;-47
2022/01/12 14:59:19;;;;;;;65.10;21.75;;;;;;;3.51;100.00;104009.84;4962910;28;20046;-43
2022/01/12 15:01:44;;;;;;;79.88;22.95;;;;;;;3.46;100.00;104009.09;4962296;28;20046;-46
2022/01/12 15:04:09;;;;;;;72.72;21.63;;;;;;;3.45;100.00;104007.38;4948105;28;20564;-44
2022/01/12 15:06:35;;;;;;;68.63;22.52;;;;;;;3.42;100.00;104002.16;4968403;28;20031;-47
2022/01/12 15:09:00;;;;;;;74.25;22.85;;;;;;;3.35;100.00;104007.56;4969856;28;20525;-49
2022/01/12 15:11:25;;;;;;;79.53;25.63;;;;;;;3.28;100.00;104011.28;4968589;28;20061;-44
2022/01/12 15:13:57;;;;;;;66.07;21.33;;;;;;;3.18;100.00;103996.53;4968898;28;20214;-45
2022/01/12 15:16:23;;;;;;;68.15;21.70;;;;;;;3.10;100.00;104009.91;4968070;28;20630;-49
2022/01/12 15:18:48;;;;;;;62.95;21.00;;;;;;;3.06;100.00;104000.31;4968677;28;20027;-43
2022/01/12 15:21:15;;;;;;;66.22;20.30;;;;;;;3.02;100.00;103998.66;4969140;28;20042;-43
2022/01/12 15:23:40;;;;;;;59.20;20.25;;;;;;;2.98;100.00;103992.56;4969150;28;20026;-48
2022/01/12 15:26:05;;;;;;;55.22;19.25;;;;;;;2.95;100.00;104002.31;4968249;28;20373;-43
2022/01/12 15:28:31;;;;;;;63.85;19.98;;;;;;;2.96;100.00;103996.16;4968975;28;20098;-44
2022/01/12 15:30:57;;;;;;;76.32;22.13;;;;;;;2.96;100.00;103991.72;4949989;28;20085;-45
2022/01/12 15:33:22;;;;;;;70.35;23.00;;;;;;;2.94;100.00;104001.47;4966587;28;20042;-47
2022/01/12 15:35:48;;;;;;;75.38;22.65;;;;;;;2.92;100.00;104000.63;4968680;28;20027;-44
2022/01/12 15:38:13;;;;;;;65.15;22.15;;;;;;;2.87;100.00;104005.16;4967707;28;20153;-46
2022/01/12 15:40:42;;;;;;;66.65;21.88;;;;;;;2.87;100.00;104006.88;4977896;28;20113;-44
2022/01/12 15:43:07;;;;;;;73.05;22.38;;;;;;;2.87;100.00;104012.16;4977792;28;20549;-45
2022/01/12 15:45:33;;;;;;;78.90;22.92;;;;;;;2.86;100.00;104013.94;4975636;28;20097;-45
2022/01/12 15:47:59;;;;;;;71.80;23.48;;;;;;;2.84;100.00;104015.75;4966352;28;20057;-45
2022/01/12 15:50:24;;;;;;;84.95;25.52;;;;;;;2.81;100.00;104010.53;4983021;28;20014;-43
2022/01/12 15:52:49;;;;;;;82.75;24.50;;;;;;;2.76;100.00;104010.63;4987598;28;20041;-43
2022/01/12 15:55:15;;;;;;;74.60;24.08;;;;;;;2.72;100.00;104014.25;4988294;28;20015;-43
2022/01/12 15:57:40;;;;;;;74.13;23.58;;;;;;;2.73;100.00;104021.28;4988084;28;20027;-44
2022/01/12 16:00:08;;;;;;;71.47;22.80;;;;;;;2.72;100.00;104014.25;4970907;28;20026;-44
2022/01/12 16:02:33;;;;;;;72.93;24.35;;;;;;;2.72;100.00;104014.25;4967091;28;20121;-43
2022/01/12 16:04:59;;;;;;;74.13;23.02;;;;;;;2.71;100.00;104012.50;4968660;28;20253;-46
2022/01/12 16:07:24;;;;;;;82.68;25.35;;;;;;;2.73;100.00;104018.63;4967774;28;20033;-44
2022/01/12 16:09:50;;;;;;;74.47;24.33;;;;;;;2.74;100.00;104017.72;4968200;28;20751;-46
2022/01/12 16:12:16;;;;;;;70.47;24.00;;;;;;;2.76;100.00;104023.81;4968113;28;20038;-50
2022/01/12 16:14:42;;;;;;;68.93;23.85;;;;;;;2.72;100.00;104022.16;4968903;28;20054;-44
2022/01/12 16:17:07;;;;;;;77.88;25.98;;;;;;;2.72;100.00;104032.72;4964102;28;20019;-48
2022/01/12 16:19:40;;;;;;;71.00;24.15;;;;;;;2.72;100.00;104027.44;4962820;28;20037;-45
2022/01/12 16:22:07;;;;;;;77.50;25.73;;;;;;;2.74;100.00;104032.69;4937534;28;20015;-45
2022/01/12 16:24:32;;;;;;;74.43;24.95;;;;;;;2.76;100.00;104039.66;4963860;28;20133;-47
2022/01/12 16:26:58;;;;;;;86.40;24.60;;;;;;;2.75;100.00;104039.69;4959080;28;20039;-46
2022/01/12 16:29:23;;;;;;;79.45;24.65;;;;;;;2.74;100.00;104041.47;4962768;28;20033;-44
2022/01/12 16:31:49;;;;;;;80.43;25.35;;;;;;;2.74;100.00;104051.16;4961903;28;20033;-45
2022/01/12 16:34:14;;;;;;;83.60;24.52;;;;;;;2.72;100.00;104055.63;4963155;28;20023;-45
2022/01/12 16:36:41;;;;;;;70.38;23.65;;;;;;;2.72;100.00;104063.53;4963683;28;20038;-44
2022/01/12 16:39:10;;;;;;;81.85;26.55;;;;;;;2.68;100.00;104059.19;4964025;28;20491;-47
2022/01/12 16:41:35;;;;;;;68.38;23.92;;;;;;;2.61;100.00;104061.06;4946898;28;20034;-44
2022/01/12 16:44:01;;;;;;;72.60;22.70;;;;;;;2.64;100.00;104060.16;4964046;28;20041;-46
2022/01/12 16:46:27;;;;;;;75.07;23.65;;;;;;;2.63;100.00;104063.69;4962515;28;20133;-48
2022/01/12 16:48:54;;;;;;;76.85;25.00;;;;;;;2.63;100.00;104072.50;4951359;28;20109;-46
2022/01/12 16:51:19;;;;;;;84.22;24.73;;;;;;;2.66;100.00;104076.84;4952149;28;21006;-45
2022/01/12 16:53:47;;;;;;;70.13;23.42;;;;;;;2.66;100.00;104074.19;4968017;28;20034;-48
2022/01/12 16:56:15;;;;;;;76.90;24.52;;;;;;;2.66;100.00;104066.28;4963841;28;20064;-45
2022/01/12 16:58:42;;;;;;;78.75;26.63;;;;;;;2.64;100.00;104058.38;4947897;28;20113;-46
2022/01/12 17:01:09;;;;;;;78.63;25.88;;;;;;;2.66;100.00;104068.91;4961837;28;20106;-44
2022/01/12 17:03:37;;;;;;;83.20;25.80;;;;;;;2.64;100.00;104063.66;4945803;28;20034;-45
2022/01/12 17:06:03;;;;;;;85.90;29.30;;;;;;;2.63;100.00;104068.97;4962989;28;20536;-49
2022/01/12 17:08:28;;;;;;;91.53;27.63;;;;;;;2.64;100.00;104071.59;4961674;28;20023;-45
2022/01/12 17:10:53;;;;;;;75.78;25.55;;;;;;;2.62;100.00;104073.38;4961614;28;20022;-45
2022/01/12 17:13:18;;;;;;;80.50;26.92;;;;;;;2.65;100.00;104083.00;4961855;28;20035;-44
2022/01/12 17:15:44;;;;;;;82.00;26.02;;;;;;;2.65;100.00;104083.88;4960948;28;20069;-45
2022/01/12 17:18:39;;;;;;;83.17;27.90;;;;;;;2.67;100.00;104091.78;4963127;28;20030;-45
2022/01/12 17:21:06;;;;;;;77.18;24.38;;;;;;;2.66;100.00;104092.66;4968730;28;20638;-46
2022/01/12 17:23:32;;;;;;;84.47;26.50;;;;;;;2.67;100.00;104084.72;4963227;28;20097;-47
2022/01/12 17:25:58;;;;;;;83.03;25.70;;;;;;;2.68;100.00;104088.22;4962602;28;20860;-47
2022/01/12 17:28:23;;;;;;;82.10;26.70;;;;;;;2.69;100.00;104084.69;4971852;28;20369;-45
2022/01/12 17:30:51;;;;;;;77.97;24.63;;;;;;;2.69;100.00;104082.06;4969771;28;20033;-44
2022/01/12 17:33:19;;;;;;;75.00;24.98;;;;;;;2.64;100.00;104070.72;4972605;28;20373;-47
2022/01/12 17:35:46;;;;;;;79.88;24.58;;;;;;;2.66;100.00;104084.75;4968401;28;20029;-45
2022/01/12 17:38:12;;;;;;;74.70;25.75;;;;;;;2.62;100.00;104078.66;4972128;28;20501;-44
2022/01/12 17:40:47;;;;;;;78.07;26.13;;;;;;;2.63;100.00;104079.53;4971651;28;20074;-48
2022/01/12 17:43:23;;;;;;;80.18;24.88;;;;;;;2.62;100.00;104081.31;4970524;28;20023;-43
2022/01/12 17:45:51;;;;;;;88.60;26.33;;;;;;;2.58;100.00;104074.31;4969238;28;20109;-45
2022/01/12 17:48:26;;;;;;;72.20;24.25;;;;;;;2.56;100.00;104079.66;4973402;28;20030;-44
2022/01/12 17:50:59;;;;;;;78.43;27.08;;;;;;;2.51;100.00;104070.06;4981883;28;20037;-47
2022/01/12 17:53:24;;;;;;;81.22;26.23;;;;;;;2.48;100.00;104072.75;4961486;28;20038;-47
2022/01/12 17:55:50;;;;;;;95.28;29.40;;;;;;;2.49;100.00;104066.59;4972984;28;20019;-46
2022/01/12 17:58:15;;;;;;;81.38;26.55;;;;;;;2.48;100.00;104072.75;4959423;28;20584;-47
2022/01/12 18:00:42;;;;;;;86.90;27.92;;;;;;;2.48;100.00;104084.22;4960968;28;20034;-45
2022/01/12 18:03:09;;;;;;;93.28;27.23;;;;;;;2.49;100.00;104087.72;4960963;28;20027;-45
2022/01/12 18:05:34;;;;;;;84.60;26.92;;;;;;;2.50;100.00;104090.31;4958285;28;20286;-43
2022/01/12 18:08:00;;;;;;;84.97;26.90;;;;;;;2.53;100.00;104092.00;4948086;28;20041;-46
2022/01/12 18:10:25;;;;;;;84.57;27.58;;;;;;;2.54;100.00;104086.72;4960443;28;20030;-43
2022/01/12 18:12:50;;;;;;;87.57;28.35;;;;;;;2.55;100.00;104092.88;4961474;28;20030;-44
2022/01/12 18:15:16;;;;;;;84.57;28.48;;;;;;;2.56;100.00;104100.78;4960519;28;20158;-48
2022/01/12 18:17:43;;;;;;;91.80;28.10;;;;;;;2.54;100.00;104110.47;4971726;28;20030;-44
2022/01/12 18:20:09;;;;;;;83.35;26.77;;;;;;;2.57;100.00;104113.03;4981270;28;20053;-45
2022/01/12 18:22:36;;;;;;;87.85;27.88;;;;;;;2.54;100.00;104097.25;4962408;28;20064;-45
2022/01/12 18:25:03;;;;;;;100.10;30.25;;;;;;;2.57;100.00;104113.03;4967433;28;20030;-44
2022/01/12 18:27:28;;;;;;;89.65;27.95;;;;;;;2.57;100.00;104114.81;4965633;28;20033;-45
2022/01/12 18:29:54;;;;;;;86.25;27.67;;;;;;;2.59;100.00;104119.16;4957323;28;20422;-45
2022/01/12 18:32:19;;;;;;;79.90;28.25;;;;;;;2.59;100.00;104110.38;4938366;28;20067;-47
2022/01/12 18:34:46;;;;;;;84.55;29.35;;;;;;;2.58;100.00;104111.25;4956325;28;20062;-43
2022/01/12 18:37:12;;;;;;;93.22;29.25;;;;;;;2.55;100.00;104106.94;4961299;28;20111;-47
2022/01/12 18:39:37;;;;;;;92.88;27.52;;;;;;;2.54;100.00;104101.69;4960469;28;20043;-44
2022/01/12 18:42:02;;;;;;;79.35;27.13;;;;;;;2.54;100.00;104104.31;4973421;28;20057;-43
2022/01/12 18:44:28;;;;;;;88.65;28.98;;;;;;;2.53;100.00;104102.56;4970638;28;20027;-47
2022/01/12 18:46:54;;;;;;;87.65;29.10;;;;;;;2.49;100.00;104101.75;4960171;28;20049;-42
2022/01/12 18:49:21;;;;;;;101.65;32.35;;;;;;;2.48;100.00;104105.31;4960125;28;20030;-44
2022/01/12 18:51:46;;;;;;;107.00;30.83;;;;;;;2.48;100.00;104112.34;4960918;28;20077;-46
2022/01/12 18:54:12;;;;;;;98.93;31.20;;;;;;;2.46;100.00;104103.59;4957380;28;20035;-43
2022/01/12 18:56:38;;;;;;;92.10;29.35;;;;;;;2.45;100.00;104099.22;4958909;28;20937;-45
2022/01/12 18:59:05;;;;;;;96.00;30.25;;;;;;;2.43;100.00;104107.16;4956810;28;20031;-46
2022/01/12 19:01:31;;;;;;;105.03;30.85;;;;;;;2.42;100.00;104108.06;4953022;28;20053;-44
2022/01/12 19:03:56;;;;;;;100.95;29.70;;;;;;;2.38;100.00;104114.28;4958721;28;20485;-44
2022/01/12 19:06:22;;;;;;;104.32;31.58;;;;;;;2.33;100.00;104108.22;4961174;28;20035;-48
2022/01/12 19:08:47;;;;;;;101.60;30.02;;;;;;;2.26;100.00;104103.94;4961975;28;20031;-44
2022/01/12 19:11:13;;;;;;;118.18;34.20;;;;;;;2.23;100.00;104099.59;4961369;28;20031;-45
2022/01/12 19:13:42;;;;;;;103.22;30.50;;;;;;;2.20;100.00;104112.81;4943008;28;20398;-47
2022/01/12 19:16:10;;;;;;;114.90;30.60;;;;;;;2.20;100.00;104118.97;4961322;28;20042;-47
2022/01/12 19:18:36;;;;;;;110.97;30.45;;;;;;;2.19;100.00;104122.50;4940038;28;20699;-48
2022/01/12 19:21:02;;;;;;;117.75;31.50;;;;;;;2.17;100.00;104126.94;4959972;28;20206;-44
2022/01/12 19:23:27;;;;;;;122.35;34.72;;;;;;;2.12;100.00;104126.16;4959955;28;20037;-48
2022/01/12 19:25:53;;;;;;;112.18;33.80;;;;;;;2.04;100.00;104114.84;4960008;28;20027;-44
2022/01/12 19:28:18;;;;;;;102.75;28.67;;;;;;;1.96;100.00;104129.91;4959620;28;20041;-44
2022/01/12 19:30:43;;;;;;;111.97;30.48;;;;;;;1.92;100.00;104130.84;4959089;28;20369;-45
2022/01/12 19:33:09;;;;;;;96.88;30.48;;;;;;;1.87;100.00;104128.28;4958831;28;20043;-47
2022/01/12 19:35:34;;;;;;;118.30;30.45;;;;;;;1.84;100.00;104138.88;4958472;28;20481;-44